Time;durP1;ratioP1;P1;durP2;ratioP2;P2;SDS_P1;SDS_P2;PMS_P1;PMS_P2;Temp;Humidity;BMP_temperature;BMP_pressure;BME280_temperature;BME280_humidity;BME280_pressure;Samples;Min_cycle;Max_cycle;Signal;HPM_P1;HPM_P2
2022/07/09 00:00:25;;;;;;;10.50;4.47;;;16.40;99.90;;;;;;5025892;28;20037;-81
2022/07/09 00:02:50;;;;;;;9.80;4.13;;;16.40;99.90;;;;;;5024898;28;20041;-79
2022/07/09 00:05:16;;;;;;;12.25;4.20;;;16.40;99.90;;;;;;5025211;28;20033;-79
2022/07/09 00:07:41;;;;;;;10.13;4.20;;;16.40;99.90;;;;;;5022152;28;20064;-79
2022/07/09 00:10:07;;;;;;;14.77;4.00;;;16.40;99.90;;;;;;5028025;28;20037;-80
2022/07/09 00:12:33;;;;;;;10.07;4.65;;;16.30;99.90;;;;;;5028419;28;20057;-79
2022/07/09 00:14:58;;;;;;;9.18;4.10;;;16.40;99.90;;;;;;5007230;28;20050;-79
2022/07/09 00:17:25;;;;;;;7.70;4.10;;;16.30;99.90;;;;;;5027091;28;20052;-79
2022/07/09 00:19:52;;;;;;;7.97;4.07;;;16.30;99.90;;;;;;5009681;28;20061;-79
2022/07/09 00:22:18;;;;;;;7.40;3.88;;;16.20;99.90;;;;;;5024553;28;20083;-81
2022/07/09 00:24:43;;;;;;;9.05;4.63;;;16.20;99.90;;;;;;5024186;28;20041;-80
2022/07/09 00:27:09;;;;;;;8.73;4.15;;;16.20;99.90;;;;;;5023970;28;20041;-80
2022/07/09 00:29:34;;;;;;;9.23;4.22;;;16.20;99.90;;;;;;5040410;28;20088;-79
2022/07/09 00:32:00;;;;;;;9.02;4.15;;;16.10;99.90;;;;;;5024613;28;20038;-79
2022/07/09 00:34:26;;;;;;;7.95;3.97;;;16.10;99.90;;;;;;5026640;28;20617;-81
2022/07/09 00:36:51;;;;;;;11.93;4.40;;;16.10;99.90;;;;;;5022944;28;20648;-79
2022/07/09 00:39:17;;;;;;;10.20;4.47;;;16.10;99.90;;;;;;5023737;28;20107;-82
2022/07/09 00:41:42;;;;;;;10.52;4.13;;;16.10;99.90;;;;;;5024626;28;20044;-79
2022/07/09 00:44:08;;;;;;;9.68;4.40;;;16.10;99.90;;;;;;5025832;28;20048;-81
2022/07/09 00:46:33;;;;;;;11.90;4.78;;;16.00;99.90;;;;;;5007639;28;20049;-79
2022/07/09 00:49:03;;;;;;;8.05;4.65;;;16.10;99.90;;;;;;5022741;28;20056;-80
2022/07/09 00:51:30;;;;;;;8.18;3.95;;;16.00;99.90;;;;;;5021905;28;20045;-79
2022/07/09 00:53:56;;;;;;;13.90;4.97;;;16.10;99.90;;;;;;5025097;28;20044;-81
2022/07/09 00:56:23;;;;;;;9.95;5.03;;;16.00;99.90;;;;;;5025144;28;20100;-81
2022/07/09 00:58:50;;;;;;;7.18;4.30;;;15.90;99.90;;;;;;5026033;28;20744;-80
2022/07/09 01:01:15;;;;;;;10.05;4.13;;;15.90;99.90;;;;;;5026322;28;20049;-79
2022/07/09 01:03:41;;;;;;;12.98;4.32;;;15.80;99.90;;;;;;5028115;28;20459;-81
2022/07/09 01:06:07;;;;;;;9.57;4.20;;;15.80;99.90;;;;;;5027578;28;20129;-80
2022/07/09 01:08:33;;;;;;;10.77;5.30;;;15.80;99.90;;;;;;5008669;28;20084;-80
2022/07/09 01:10:59;;;;;;;8.50;4.40;;;15.80;99.90;;;;;;5024856;28;20041;-81
2022/07/09 01:13:25;;;;;;;9.73;5.15;;;15.70;99.90;;;;;;5028172;28;20041;-80
2022/07/09 01:15:51;;;;;;;9.15;4.80;;;15.80;99.90;;;;;;5027321;28;20335;-82
2022/07/09 01:18:17;;;;;;;11.13;5.25;;;15.80;99.90;;;;;;5027777;28;20048;-81
2022/07/09 01:20:42;;;;;;;9.60;5.72;;;15.80;99.90;;;;;;5028008;28;20050;-82
2022/07/09 01:23:08;;;;;;;11.02;5.40;;;15.80;99.90;;;;;;5027577;28;20041;-82
2022/07/09 01:25:41;;;;;;;9.23;5.40;;;15.90;99.90;;;;;;5028489;28;20075;-81
2022/07/09 01:28:09;;;;;;;11.65;5.05;;;15.90;99.90;;;;;;5020040;28;20048;-80
2022/07/09 01:30:37;;;;;;;13.40;5.65;;;15.90;99.90;;;;;;5021502;28;20041;-81
2022/07/09 01:33:03;;;;;;;10.50;5.20;;;15.90;99.90;;;;;;5013192;28;20061;-81
2022/07/09 01:35:29;;;;;;;11.63;6.13;;;15.90;99.90;;;;;;5026855;28;20037;-81
2022/07/09 01:37:55;;;;;;;7.95;5.68;;;15.90;99.90;;;;;;5024223;28;20071;-82
2022/07/09 01:40:21;;;;;;;13.30;6.88;;;16.00;99.90;;;;;;5007280;28;20037;-81
2022/07/09 01:42:47;;;;;;;16.77;6.72;;;16.00;99.90;;;;;;5025769;28;20120;-82
2022/07/09 01:45:14;;;;;;;11.07;6.07;;;16.00;99.90;;;;;;5009281;28;20064;-82
2022/07/09 01:47:40;;;;;;;11.00;6.18;;;16.00;99.90;;;;;;5026269;28;20048;-81
2022/07/09 01:50:07;;;;;;;11.75;5.85;;;16.10;99.90;;;;;;5025735;28;20045;-80
2022/07/09 01:52:32;;;;;;;9.88;5.85;;;16.10;99.90;;;;;;5023569;28;20060;-81
2022/07/09 01:54:58;;;;;;;11.88;6.35;;;16.10;99.90;;;;;;5027521;28;20395;-80
2022/07/09 01:57:24;;;;;;;12.68;6.38;;;16.10;99.90;;;;;;5026981;28;20033;-81
2022/07/09 01:59:49;;;;;;;14.00;6.85;;;16.10;99.90;;;;;;5002030;28;20052;-82
2022/07/09 02:02:15;;;;;;;10.18;5.82;;;16.10;99.90;;;;;;5025238;28;20070;-81
2022/07/09 02:04:41;;;;;;;9.35;6.20;;;16.10;99.90;;;;;;5025064;28;20076;-79
2022/07/09 02:07:06;;;;;;;12.85;6.50;;;16.20;99.90;;;;;;5026635;28;20107;-81
2022/07/09 02:09:32;;;;;;;12.48;6.55;;;16.10;99.90;;;;;;5023196;28;20091;-80
2022/07/09 02:11:57;;;;;;;8.88;5.70;;;16.20;99.90;;;;;;5026834;28;20037;-82
2022/07/09 02:14:23;;;;;;;6.82;6.03;;;16.20;99.90;;;;;;5024827;28;20128;-81
2022/07/09 02:16:48;;;;;;;10.68;5.90;;;16.20;99.90;;;;;;5026938;28;20034;-82
2022/07/09 02:19:14;;;;;;;14.38;6.78;;;16.20;99.90;;;;;;5027976;28;20103;-81
2022/07/09 02:21:40;;;;;;;10.05;6.03;;;16.30;99.90;;;;;;5007571;28;20107;-81
2022/07/09 02:24:06;;;;;;;10.45;5.63;;;16.30;99.90;;;;;;5027594;28;20516;-82
2022/07/09 02:26:32;;;;;;;11.75;5.95;;;16.30;99.90;;;;;;5025548;28;20084;-80
2022/07/09 02:28:59;;;;;;;12.73;5.60;;;16.20;99.90;;;;;;5026446;28;20072;-79
2022/07/09 02:31:25;;;;;;;10.90;5.35;;;16.40;99.90;;;;;;5008139;28;20128;-80
2022/07/09 02:33:51;;;;;;;7.82;4.93;;;16.30;99.90;;;;;;5024097;28;20049;-82
2022/07/09 02:36:17;;;;;;;12.00;5.93;;;16.30;99.90;;;;;;5028036;28;20690;-81
2022/07/09 02:38:42;;;;;;;8.85;5.03;;;16.30;99.90;;;;;;5023372;28;20050;-81
2022/07/09 02:41:08;;;;;;;7.65;4.93;;;16.30;99.90;;;;;;5026359;28;20538;-80
2022/07/09 02:43:33;;;;;;;8.98;5.03;;;16.30;99.90;;;;;;5027173;28;20053;-80
2022/07/09 02:45:59;;;;;;;10.55;5.00;;;16.30;99.90;;;;;;5023416;28;20041;-81
2022/07/09 02:48:25;;;;;;;9.05;5.30;;;16.40;99.90;;;;;;5024314;28;20037;-81
2022/07/09 02:50:51;;;;;;;11.88;5.20;;;16.30;99.90;;;;;;5028167;28;20140;-82
2022/07/09 02:53:18;;;;;;;9.23;4.90;;;16.30;99.90;;;;;;5032284;28;20101;-80
2022/07/09 02:55:44;;;;;;;10.85;5.35;;;16.30;99.90;;;;;;5028199;28;20064;-81
2022/07/09 02:58:10;;;;;;;10.52;6.00;;;16.30;99.90;;;;;;5030751;28;20045;-81
2022/07/09 03:00:36;;;;;;;10.13;4.90;;;16.30;99.90;;;;;;5029712;28;20045;-82
2022/07/09 03:03:02;;;;;;;10.05;5.63;;;16.40;99.90;;;;;;5031001;28;20557;-81
2022/07/09 03:05:27;;;;;;;8.90;4.68;;;16.30;99.90;;;;;;5027081;28;20038;-80
2022/07/09 03:07:53;;;;;;;9.38;4.95;;;16.30;99.90;;;;;;5025121;28;20029;-82
2022/07/09 03:10:18;;;;;;;8.40;5.10;;;16.30;99.90;;;;;;5030551;28;20051;-82
2022/07/09 03:12:44;;;;;;;9.77;5.13;;;16.30;99.90;;;;;;5029955;28;20045;-82
2022/07/09 03:15:12;;;;;;;11.43;5.28;;;16.20;99.90;;;;;;5011092;28;20037;-80
2022/07/09 03:17:38;;;;;;;10.57;4.70;;;16.30;99.90;;;;;;5030457;28;20060;-80
2022/07/09 03:20:04;;;;;;;9.93;5.05;;;16.30;99.90;;;;;;5029422;28;20045;-81
2022/07/09 03:22:31;;;;;;;7.90;5.15;;;16.30;99.90;;;;;;5031022;28;20045;-80
2022/07/09 03:24:56;;;;;;;12.23;5.00;;;16.30;99.90;;;;;;5028582;28;20399;-82
2022/07/09 03:27:22;;;;;;;8.10;5.25;;;16.20;99.90;;;;;;5015893;28;20494;-82
2022/07/09 03:29:48;;;;;;;13.73;5.97;;;16.30;99.90;;;;;;5025875;28;20041;-82
2022/07/09 03:32:13;;;;;;;8.32;4.75;;;16.30;99.90;;;;;;5017308;28;20106;-82
2022/07/09 03:34:39;;;;;;;11.10;5.68;;;16.20;99.90;;;;;;5033382;28;20033;-81
2022/07/09 03:37:05;;;;;;;9.63;4.60;;;16.30;99.90;;;;;;5029063;28;21302;-80
2022/07/09 03:39:31;;;;;;;9.77;5.40;;;16.30;99.90;;;;;;5024383;28;20126;-81
2022/07/09 03:41:56;;;;;;;8.82;5.00;;;16.30;99.90;;;;;;5030789;28;20040;-81
2022/07/09 03:44:22;;;;;;;11.07;5.50;;;16.20;99.90;;;;;;5024878;28;20052;-80
2022/07/09 03:46:47;;;;;;;11.60;5.22;;;16.20;99.90;;;;;;5029691;28;20050;-82
2022/07/09 03:49:13;;;;;;;7.68;5.07;;;16.10;99.90;;;;;;5026280;28;20045;-79
2022/07/09 03:51:39;;;;;;;10.77;5.30;;;16.20;99.90;;;;;;5028667;28;20139;-81
2022/07/09 03:54:04;;;;;;;7.43;5.32;;;16.20;99.90;;;;;;5028946;28;20120;-81
2022/07/09 03:56:30;;;;;;;8.32;5.18;;;16.20;99.90;;;;;;5030429;28;20092;-82
2022/07/09 03:58:55;;;;;;;12.88;5.75;;;16.10;99.90;;;;;;5013861;28;20041;-82
2022/07/09 04:01:21;;;;;;;11.48;5.57;;;16.10;99.90;;;;;;5010147;28;20114;-80
2022/07/09 04:03:47;;;;;;;8.50;5.57;;;16.20;99.90;;;;;;5028797;28;20480;-82
2022/07/09 04:06:12;;;;;;;13.90;6.72;;;16.10;99.90;;;;;;5027281;28;20549;-82
2022/07/09 04:08:38;;;;;;;8.77;6.35;;;16.10;99.90;;;;;;5029309;28;20732;-81
2022/07/09 04:11:03;;;;;;;9.13;5.63;;;16.20;99.90;;;;;;5027035;28;20045;-81
2022/07/09 04:13:29;;;;;;;11.55;6.22;;;16.10;99.90;;;;;;5026387;28;20045;-82
2022/07/09 04:15:55;;;;;;;8.60;5.85;;;16.20;99.90;;;;;;5028687;28;20152;-81
2022/07/09 04:18:20;;;;;;;10.45;6.35;;;16.20;99.90;;;;;;5028238;28;20045;-81
2022/07/09 04:20:46;;;;;;;11.35;7.00;;;16.20;99.90;;;;;;5028561;28;20051;-80
2022/07/09 04:23:12;;;;;;;9.07;6.32;;;16.30;99.90;;;;;;5027286;28;20128;-81
2022/07/09 04:25:37;;;;;;;9.52;6.57;;;16.30;99.90;;;;;;5030047;28;20139;-79
2022/07/09 04:28:05;;;;;;;13.00;6.68;;;16.30;99.90;;;;;;5015486;28;20041;-82
2022/07/09 04:30:31;;;;;;;11.95;7.05;;;16.30;99.90;;;;;;5041760;28;20045;-82
2022/07/09 04:32:56;;;;;;;10.05;6.95;;;16.30;99.90;;;;;;5029643;28;20034;-81
2022/07/09 04:35:22;;;;;;;8.80;6.20;;;16.30;99.90;;;;;;5029747;28;20064;-81
2022/07/09 04:37:48;;;;;;;12.10;6.65;;;16.40;99.90;;;;;;5028878;28;21596;-81
2022/07/09 04:40:13;;;;;;;11.35;6.78;;;16.40;99.90;;;;;;5027925;28;20049;-82
2022/07/09 04:42:39;;;;;;;15.13;7.85;;;16.40;99.90;;;;;;5028107;28;20055;-82
2022/07/09 04:45:05;;;;;;;16.60;7.18;;;16.50;99.90;;;;;;5029573;28;20045;-80
2022/07/09 04:47:30;;;;;;;16.50;7.47;;;16.50;99.90;;;;;;5029221;28;20061;-81
2022/07/09 04:49:56;;;;;;;11.02;6.70;;;16.50;99.90;;;;;;5026995;28;20041;-80
2022/07/09 04:52:26;;;;;;;12.32;7.20;;;16.60;99.90;;;;;;5027717;28;20039;-80
2022/07/09 04:54:52;;;;;;;11.90;7.53;;;16.60;99.90;;;;;;5029030;28;20041;-81
2022/07/09 04:57:18;;;;;;;10.85;7.85;;;16.60;99.90;;;;;;5029507;28;20053;-82
2022/07/09 04:59:43;;;;;;;15.35;8.18;;;16.70;99.90;;;;;;5027410;28;20034;-81
2022/07/09 05:02:09;;;;;;;17.77;8.25;;;16.70;99.90;;;;;;5027919;28;20044;-82
2022/07/09 05:04:35;;;;;;;9.93;7.28;;;16.70;99.90;;;;;;5028089;28;20049;-81
2022/07/09 05:07:05;;;;;;;12.48;7.97;;;16.70;99.90;;;;;;5027999;28;20052;-82
2022/07/09 05:09:30;;;;;;;12.32;7.70;;;16.70;99.90;;;;;;5025604;28;20397;-80
2022/07/09 05:11:56;;;;;;;11.13;7.30;;;16.80;99.90;;;;;;5025332;28;20045;-82
2022/07/09 05:14:21;;;;;;;14.10;8.05;;;16.70;99.90;;;;;;5026154;28;20438;-80
2022/07/09 05:16:47;;;;;;;11.20;7.63;;;16.70;99.90;;;;;;5025519;28;20060;-80
2022/07/09 05:19:13;;;;;;;10.82;8.15;;;16.80;99.90;;;;;;5023451;28;20045;-81
2022/07/09 05:21:40;;;;;;;12.45;8.13;;;16.80;99.90;;;;;;5023762;28;20052;-82
2022/07/09 05:24:06;;;;;;;11.05;7.32;;;16.80;99.90;;;;;;5025379;28;20049;-82
2022/07/09 05:26:33;;;;;;;10.20;8.18;;;16.80;99.90;;;;;;5027894;28;20495;-82
2022/07/09 05:28:58;;;;;;;9.00;7.18;;;16.90;99.90;;;;;;5009779;28;20415;-81
2022/07/09 05:31:24;;;;;;;12.27;7.57;;;17.10;99.90;;;;;;5022934;28;20045;-81
2022/07/09 05:33:50;;;;;;;9.00;6.88;;;17.20;99.90;;;;;;5026602;28;20049;-80
2022/07/09 05:36:17;;;;;;;9.70;6.60;;;17.40;99.90;;;;;;5027999;28;20059;-82
2022/07/09 05:38:43;;;;;;;10.60;5.55;;;17.50;99.90;;;;;;5025668;28;20120;-82
2022/07/09 05:41:10;;;;;;;10.02;6.20;;;17.70;99.90;;;;;;5021826;28;20194;-79
2022/07/09 05:43:36;;;;;;;7.43;5.75;;;17.70;99.90;;;;;;5029071;28;20049;-80
2022/07/09 05:46:01;;;;;;;10.13;5.70;;;17.90;99.90;;;;;;5027820;28;20423;-82
2022/07/09 05:48:27;;;;;;;8.25;4.55;;;18.00;99.90;;;;;;5044668;28;20052;-81
2022/07/09 05:50:52;;;;;;;6.85;5.00;;;18.10;99.90;;;;;;5037413;28;20037;-81
2022/07/09 05:53:18;;;;;;;7.85;5.15;;;18.10;99.90;;;;;;5022800;28;20536;-82
2022/07/09 05:55:44;;;;;;;6.30;4.72;;;18.20;99.90;;;;;;5025289;28;20047;-82
2022/07/09 05:58:10;;;;;;;6.60;4.70;;;18.20;99.90;;;;;;5024989;28;20030;-82
2022/07/09 06:00:35;;;;;;;8.07;4.20;;;18.30;99.90;;;;;;5025723;28;20496;-82
2022/07/09 06:03:01;;;;;;;5.93;4.22;;;18.30;99.90;;;;;;5024989;28;20183;-80
2022/07/09 06:05:26;;;;;;;5.57;3.40;;;18.40;99.90;;;;;;5024068;28;20132;-82
2022/07/09 06:07:52;;;;;;;6.93;3.80;;;18.40;99.90;;;;;;5026917;28;20033;-81
2022/07/09 06:10:18;;;;;;;7.03;4.03;;;18.40;99.90;;;;;;5022668;28;20488;-81
2022/07/09 06:12:44;;;;;;;6.53;3.92;;;18.50;99.90;;;;;;5024384;28;20091;-82
2022/07/09 06:15:11;;;;;;;4.78;3.55;;;18.60;99.90;;;;;;5024862;28;20075;-82
2022/07/09 06:17:36;;;;;;;4.28;3.15;;;18.60;99.90;;;;;;5021507;28;20146;-81
2022/07/09 06:20:02;;;;;;;5.75;3.42;;;18.60;99.90;;;;;;5022437;28;20037;-82
2022/07/09 06:22:28;;;;;;;8.07;3.78;;;18.70;99.90;;;;;;5021475;28;20522;-84
2022/07/09 06:24:54;;;;;;;6.32;3.55;;;18.70;99.90;;;;;;5021071;28;20132;-83
2022/07/09 06:27:19;;;;;;;8.85;3.47;;;18.70;99.90;;;;;;5021476;28;20038;-83
2022/07/09 06:29:45;;;;;;;7.20;3.13;;;18.70;99.90;;;;;;5019300;28;20111;-84
2022/07/09 06:32:10;;;;;;;4.07;2.42;;;18.80;99.90;;;;;;5022004;28;20095;-80
2022/07/09 06:34:36;;;;;;;5.13;2.95;;;18.80;99.90;;;;;;5023544;28;20045;-82
2022/07/09 06:37:01;;;;;;;4.00;2.75;;;18.80;99.90;;;;;;5024832;28;20067;-81
2022/07/09 06:39:45;;;;;;;4.68;2.55;;;18.70;99.90;;;;;;5022000;28;20873;-82
2022/07/09 06:42:11;;;;;;;5.30;2.75;;;18.80;99.90;;;;;;5023027;28;20084;-81
2022/07/09 06:44:37;;;;;;;7.50;2.58;;;18.80;99.90;;;;;;5024455;28;20055;-82
2022/07/09 06:47:04;;;;;;;3.50;2.70;;;18.80;99.90;;;;;;5004810;28;20041;-82
2022/07/09 06:49:30;;;;;;;5.60;2.75;;;18.80;99.90;;;;;;5023368;28;20049;-82
2022/07/09 06:51:56;;;;;;;4.68;3.13;;;18.80;99.90;;;;;;5024300;28;20159;-81
2022/07/09 06:54:22;;;;;;;4.38;2.50;;;18.80;99.90;;;;;;5023374;28;20060;-82
2022/07/09 06:56:48;;;;;;;7.47;2.90;;;18.70;99.90;;;;;;5023085;28;20103;-82
2022/07/09 06:59:13;;;;;;;3.67;2.97;;;18.80;99.90;;;;;;5024073;28;20034;-81
2022/07/09 07:01:39;;;;;;;8.57;3.08;;;18.80;99.90;;;;;;5018489;28;20049;-83
2022/07/09 07:04:05;;;;;;;5.45;2.53;;;18.80;99.90;;;;;;5022983;28;20487;-83
2022/07/09 07:06:31;;;;;;;5.60;2.90;;;18.80;99.90;;;;;;5028871;28;20056;-81
2022/07/09 07:08:57;;;;;;;3.08;2.20;;;18.80;99.90;;;;;;5024405;28;20569;-78
2022/07/09 07:11:22;;;;;;;4.30;1.75;;;18.90;99.90;;;;;;5028839;28;20540;-83
2022/07/09 07:13:48;;;;;;;4.82;2.10;;;19.00;99.90;;;;;;5029043;28;20041;-82
2022/07/09 07:16:18;;;;;;;4.85;2.58;;;19.10;99.90;;;;;;5037476;28;20041;-82
2022/07/09 07:18:48;;;;;;;3.60;2.22;;;19.10;99.90;;;;;;4993113;28;20092;-82
2022/07/09 07:21:17;;;;;;;3.72;1.67;;;19.20;99.90;;;;;;5025994;28;20075;-82
2022/07/09 07:23:43;;;;;;;4.60;2.15;;;19.30;99.90;;;;;;5024568;28;20043;-83
2022/07/09 07:26:09;;;;;;;5.95;2.33;;;19.20;99.90;;;;;;5022111;28;20041;-81
2022/07/09 07:28:45;;;;;;;3.63;1.83;;;19.30;99.90;;;;;;5021210;28;20408;-83
2022/07/09 07:31:15;;;;;;;3.88;1.85;;;19.30;99.90;;;;;;5001080;28;20041;-84
2022/07/09 07:33:45;;;;;;;2.30;1.48;;;19.40;99.90;;;;;;5003866;28;20057;-83
2022/07/09 07:36:11;;;;;;;7.68;2.05;;;19.20;99.90;;;;;;4989349;28;20120;-82
2022/07/09 07:38:37;;;;;;;3.53;1.92;;;19.30;99.90;;;;;;5007179;28;20288;-82
2022/07/09 07:41:03;;;;;;;3.10;1.35;;;19.20;99.90;;;;;;5020785;28;20038;-82
2022/07/09 07:43:28;;;;;;;2.58;1.48;;;19.20;99.90;;;;;;5022635;28;20120;-82
2022/07/09 07:45:54;;;;;;;5.13;1.83;;;19.20;99.90;;;;;;5020182;28;20049;-82
2022/07/09 07:48:19;;;;;;;2.88;1.45;;;19.20;99.90;;;;;;5026039;28;20515;-81
2022/07/09 07:50:45;;;;;;;4.47;1.80;;;19.20;99.90;;;;;;5029941;28;20141;-82
2022/07/09 07:53:11;;;;;;;3.38;1.17;;;19.20;99.90;;;;;;5027802;28;20127;-82
2022/07/09 07:55:36;;;;;;;3.85;1.25;;;19.20;99.90;;;;;;5027125;28;20099;-82
2022/07/09 07:58:02;;;;;;;3.10;1.13;;;19.20;99.90;;;;;;5029249;28;20045;-82
2022/07/09 08:00:27;;;;;;;1.65;1.02;;;19.20;99.90;;;;;;5009104;28;20373;-81
2022/07/09 08:02:53;;;;;;;2.30;1.17;;;19.20;99.90;;;;;;5023458;28;20056;-82
2022/07/09 08:05:19;;;;;;;3.45;1.10;;;19.30;99.90;;;;;;5022910;28;20483;-81
2022/07/09 08:07:44;;;;;;;2.28;0.93;;;19.40;99.90;;;;;;5027552;28;20989;-81
2022/07/09 08:10:10;;;;;;;1.42;1.02;;;19.70;99.90;;;;;;5027103;28;20048;-82
2022/07/09 08:12:35;;;;;;;4.18;1.38;;;20.20;99.90;;;;;;5025556;28;20057;-81
2022/07/09 08:15:01;;;;;;;6.20;1.00;;;20.60;99.90;;;;;;5024299;28;20052;-83
2022/07/09 08:17:27;;;;;;;3.58;1.10;;;21.10;99.90;;;;;;5022525;28;20025;-83
2022/07/09 08:19:55;;;;;;;3.70;0.80;;;21.50;99.90;;;;;;5025544;28;20048;-86
2022/07/09 08:22:21;;;;;;;5.15;0.90;;;21.70;99.90;;;;;;5027660;28;20041;-84
2022/07/09 08:24:46;;;;;;;6.10;0.70;;;21.80;99.90;;;;;;5026474;28;20048;-83
2022/07/09 08:27:12;;;;;;;2.10;0.80;;;21.90;99.90;;;;;;5024563;28;20046;-81
2022/07/09 08:29:37;;;;;;;4.00;1.02;;;22.00;99.90;;;;;;5025218;28;20041;-83
2022/07/09 08:32:04;;;;;;;4.50;1.10;;;22.30;99.90;;;;;;5022837;28;20412;-82
2022/07/09 08:34:30;;;;;;;1.63;1.10;;;22.70;99.90;;;;;;5021940;28;20148;-82
2022/07/09 08:36:55;;;;;;;2.08;0.80;;;23.00;99.90;;;;;;5026605;28;20132;-81
2022/07/09 08:39:21;;;;;;;2.67;0.82;;;23.10;99.90;;;;;;5025411;28;20106;-82
2022/07/09 08:41:47;;;;;;;2.72;0.70;;;22.80;99.90;;;;;;5026562;28;20535;-82
2022/07/09 08:44:13;;;;;;;3.85;0.85;;;23.00;99.90;;;;;;5027944;28;20044;-83
2022/07/09 08:46:41;;;;;;;1.88;0.57;;;23.20;99.90;;;;;;5024076;28;20033;-82
2022/07/09 08:49:08;;;;;;;2.92;0.73;;;23.30;99.90;;;;;;5019419;28;20091;-83
2022/07/09 08:51:35;;;;;;;1.35;0.73;;;23.20;99.90;;;;;;5025405;28;20072;-82
2022/07/09 08:54:01;;;;;;;2.40;0.95;;;23.10;99.90;;;;;;5026172;28;20041;-82
2022/07/09 08:56:27;;;;;;;1.85;0.52;;;23.20;99.90;;;;;;5024093;28;20106;-82
2022/07/09 08:58:52;;;;;;;3.40;0.80;;;23.20;99.90;;;;;;5025269;28;20049;-82
2022/07/09 09:01:18;;;;;;;5.45;0.88;;;23.30;99.90;;;;;;5025748;28;20103;-81
2022/07/09 09:03:45;;;;;;;5.28;0.95;;;23.20;99.90;;;;;;5025181;28;20049;-82
2022/07/09 09:06:12;;;;;;;1.33;0.85;;;23.00;99.90;;;;;;5024023;28;20504;-82
2022/07/09 09:08:43;;;;;;;2.30;0.77;;;22.70;99.90;;;;;;5023449;28;20434;-83
2022/07/09 09:11:15;;;;;;;4.53;0.60;;;22.60;99.90;;;;;;5026029;28;20041;-82
2022/07/09 09:13:42;;;;;;;7.35;1.75;;;22.40;99.90;;;;;;5024893;28;20068;-82
2022/07/09 09:16:09;;;;;;;7.18;0.90;;;22.30;99.90;;;;;;5020837;28;20567;-82
2022/07/09 09:18:36;;;;;;;6.00;0.80;;;22.10;99.90;;;;;;5025121;28;20038;-81
2022/07/09 09:21:07;;;;;;;5.95;0.70;;;22.00;99.90;;;;;;5025586;28;20073;-82
2022/07/09 09:23:54;;;;;;;4.55;0.60;;;22.20;99.90;;;;;;5025068;28;20081;-82
2022/07/09 09:26:22;;;;;;;1.42;0.50;;;22.50;99.90;;;;;;5025575;28;20064;-82
2022/07/09 09:29:00;;;;;;;3.05;0.40;;;22.80;99.90;;;;;;5021219;28;20049;-82
2022/07/09 09:31:28;;;;;;;3.72;0.93;;;23.10;99.90;;;;;;5023136;28;20549;-82
2022/07/09 09:33:56;;;;;;;1.00;0.40;;;23.50;99.90;;;;;;5025253;28;20033;-83
2022/07/09 09:36:33;;;;;;;6.68;1.95;;;23.80;99.90;;;;;;5023529;28;20041;-82
2022/07/09 09:39:17;;;;;;;2.50;0.47;;;24.00;99.90;;;;;;5022933;28;20120;-82
2022/07/09 09:41:47;;;;;;;1.98;0.57;;;24.00;99.90;;;;;;5020792;28;20068;-81
2022/07/09 09:44:30;;;;;;;21.30;10.25;;;24.20;99.90;;;;;;5025008;28;20508;-83
2022/07/09 09:46:57;;;;;;;3.47;0.65;;;24.10;99.90;;;;;;5016853;28;20045;-81
2022/07/09 09:49:22;;;;;;;5.68;0.70;;;24.10;99.90;;;;;;5022510;28;20045;-83
2022/07/09 09:51:54;;;;;;;3.40;0.68;;;24.00;99.90;;;;;;5024330;28;20049;-82
2022/07/09 09:54:21;;;;;;;3.03;0.38;;;23.90;99.90;;;;;;5021434;28;20087;-82
2022/07/09 09:56:47;;;;;;;3.58;0.88;;;23.90;99.90;;;;;;5027732;28;20052;-81
2022/07/09 09:59:13;;;;;;;3.58;0.60;;;24.00;99.90;;;;;;5022915;28;20045;-83
2022/07/09 10:01:43;;;;;;;1.70;0.43;;;23.90;99.90;;;;;;5025016;28;20041;-83
2022/07/09 10:04:10;;;;;;;3.92;0.95;;;24.20;99.90;;;;;;5006403;28;20053;-82
2022/07/09 10:06:36;;;;;;;6.75;1.23;;;24.20;99.90;;;;;;5024266;28;20049;-83
2022/07/09 10:09:04;;;;;;;2.92;0.43;;;24.10;99.90;;;;;;5020688;28;20088;-82
2022/07/09 10:11:41;;;;;;;2.72;0.63;;;24.10;99.90;;;;;;5002264;28;20095;-80
2022/07/09 10:14:14;;;;;;;5.07;1.23;;;24.30;99.90;;;;;;5023212;28;20480;-82
2022/07/09 10:16:40;;;;;;;2.08;0.60;;;24.40;99.90;;;;;;5020263;28;20048;-83
2022/07/09 10:19:06;;;;;;;3.75;0.85;;;24.30;99.90;;;;;;5019624;28;20033;-84
2022/07/09 10:21:41;;;;;;;18.40;3.67;;;24.10;99.90;;;;;;5023448;28;20815;-83
2022/07/09 10:24:11;;;;;;;3.83;0.90;;;23.90;99.90;;;;;;5025222;28;20045;-83
2022/07/09 10:26:46;;;;;;;3.80;0.60;;;23.80;99.90;;;;;;5024157;28;20090;-83
2022/07/09 10:29:25;;;;;;;;;;;23.70;99.90;;;;;;5024135;28;20069;-82
2022/07/09 10:31:52;;;;;;;3.22;0.60;;;23.60;99.90;;;;;;5022259;28;20325;-83
2022/07/09 10:34:48;;;;;;;1.77;0.40;;;23.60;99.90;;;;;;5021994;28;20064;-82
2022/07/09 10:37:14;;;;;;;2.50;0.50;;;23.70;99.90;;;;;;5019467;28;20132;-82
2022/07/09 10:39:39;;;;;;;2.22;0.70;;;23.90;99.90;;;;;;5022025;28;20129;-83
2022/07/09 10:42:19;;;;;;;1.38;0.40;;;23.90;99.90;;;;;;5021041;28;20093;-82
2022/07/09 10:44:45;;;;;;;3.38;0.82;;;24.10;99.90;;;;;;5022745;28;20409;-82
2022/07/09 10:47:11;;;;;;;2.38;0.40;;;24.20;99.90;;;;;;5024049;28;20487;-83
2022/07/09 10:49:38;;;;;;;3.22;0.70;;;23.90;99.90;;;;;;5019961;28;20057;-82
2022/07/09 10:52:05;;;;;;;3.88;0.50;;;23.60;99.90;;;;;;5024639;28;20038;-81
2022/07/09 10:55:00;;;;;;;5.55;1.70;;;23.40;99.90;;;;;;5026319;28;20033;-80
2022/07/09 10:57:26;;;;;;;8.63;0.85;;;23.20;99.90;;;;;;5007559;28;20145;-80
2022/07/09 10:59:52;;;;;;;3.67;0.45;;;23.20;99.90;;;;;;5025106;28;20116;-80
2022/07/09 11:02:21;;;;;;;2.35;0.77;;;23.30;99.90;;;;;;5023901;28;20053;-81
2022/07/09 11:04:51;;;;;;;2.97;0.50;;;23.50;99.90;;;;;;5022572;28;20392;-82
2022/07/09 11:07:25;;;;;;;3.03;0.85;;;23.70;99.90;;;;;;5024861;28;20092;-81
2022/07/09 11:09:51;;;;;;;4.50;0.93;;;23.90;99.90;;;;;;5024736;28;20041;-81
2022/07/09 11:12:18;;;;;;;6.35;0.73;;;24.00;99.90;;;;;;5027021;28;20052;-81
2022/07/09 11:14:51;;;;;;;3.97;0.85;;;24.20;99.90;;;;;;5024496;28;20050;-81
2022/07/09 11:17:21;;;;;;;3.10;0.75;;;24.30;99.90;;;;;;5026024;28;20037;-81
2022/07/09 11:19:48;;;;;;;5.50;0.90;;;23.90;99.90;;;;;;5020672;28;20037;-81
2022/07/09 11:22:17;;;;;;;6.60;1.33;;;23.70;99.90;;;;;;5022298;28;20052;-80
2022/07/09 11:24:43;;;;;;;5.13;1.10;;;23.50;99.90;;;;;;5027132;28;20056;-81
2022/07/09 11:27:09;;;;;;;6.32;1.17;;;23.30;99.90;;;;;;5008423;28;20037;-80
2022/07/09 11:29:36;;;;;;;5.80;1.40;;;22.90;99.90;;;;;;5026301;28;20049;-81
2022/07/09 11:32:02;;;;;;;8.93;1.10;;;22.60;99.90;;;;;;5026774;28;20690;-80
2022/07/09 11:34:31;;;;;;;5.72;1.05;;;22.30;99.90;;;;;;5024481;28;20044;-81
2022/07/09 11:36:58;;;;;;;5.90;0.80;;;22.20;99.90;;;;;;5022916;28;20037;-81
2022/07/09 11:39:32;;;;;;;4.78;1.00;;;22.40;99.90;;;;;;5022820;28;20044;-81
2022/07/09 11:41:59;;;;;;;7.65;1.20;;;22.60;99.90;;;;;;5009947;28;20053;-81
2022/07/09 11:44:32;;;;;;;3.63;0.60;;;22.80;99.90;;;;;;5027175;28;20041;-81
2022/07/09 11:47:15;;;;;;;6.63;0.88;;;23.00;99.90;;;;;;5028731;28;20047;-80
2022/07/09 11:49:44;;;;;;;5.30;1.27;;;23.10;99.90;;;;;;5030372;28;20435;-80
2022/07/09 11:52:18;;;;;;;5.43;1.20;;;23.30;99.90;;;;;;5031848;28;20055;-81
2022/07/09 11:54:57;;;;;;;5.00;0.63;;;23.50;99.90;;;;;;5030765;28;20052;-81
2022/07/09 11:57:23;;;;;;;6.82;1.38;;;23.20;99.90;;;;;;5033428;28;20033;-81
2022/07/09 11:59:49;;;;;;;6.03;0.90;;;23.00;99.90;;;;;;5031553;28;20053;-81
2022/07/09 12:02:26;;;;;;;8.05;1.15;;;23.00;99.90;;;;;;5033591;28;20052;-81
2022/07/09 12:04:51;;;;;;;3.75;0.73;;;23.10;99.90;;;;;;5031492;28;20049;-81
2022/07/09 12:07:17;;;;;;;4.28;0.70;;;23.40;99.90;;;;;;5031721;28;20041;-81
2022/07/09 12:09:42;;;;;;;6.18;0.68;;;23.60;99.90;;;;;;5031448;28;20049;-82
2022/07/09 12:12:08;;;;;;;4.25;0.85;;;23.70;99.90;;;;;;5034093;28;20059;-82
2022/07/09 12:14:34;;;;;;;7.72;0.80;;;23.80;99.90;;;;;;5030799;28;20124;-81
2022/07/09 12:16:59;;;;;;;4.60;1.08;;;23.60;99.90;;;;;;5026206;28;20041;-81
2022/07/09 12:19:25;;;;;;;4.53;1.00;;;23.20;99.90;;;;;;5025939;28;20045;-81
2022/07/09 12:21:50;;;;;;;2.75;0.40;;;23.10;99.90;;;;;;5028681;28;20049;-80
2022/07/09 12:24:16;;;;;;;2.20;0.77;;;23.30;99.90;;;;;;5027283;28;20810;-80
2022/07/09 12:26:42;;;;;;;1.77;0.68;;;23.30;99.90;;;;;;5027828;28;20053;-81
2022/07/09 12:29:07;;;;;;;4.88;1.33;;;23.30;99.90;;;;;;5009958;28;20092;-81
2022/07/09 12:31:36;;;;;;;7.22;0.85;;;23.10;99.90;;;;;;5027818;28;20041;-82
2022/07/09 12:34:03;;;;;;;4.70;0.55;;;23.00;99.90;;;;;;5028204;28;20046;-84
2022/07/09 12:36:28;;;;;;;4.93;0.80;;;23.10;99.90;;;;;;5025555;28;20049;-81
2022/07/09 12:38:54;;;;;;;5.55;0.52;;;23.30;99.90;;;;;;5026780;28;20043;-83
2022/07/09 12:41:19;;;;;;;3.40;0.65;;;23.10;99.90;;;;;;5030050;28;20041;-81